createdAt,value
2017-01-28T00:00:47.584Z,19.81
2017-01-28T00:01:47.611Z,19.91
2017-01-28T00:02:47.634Z,19.81
2017-01-28T00:03:47.658Z,19.84
2017-01-28T00:04:48.362Z,19.74
2017-01-28T00:05:48.109Z,19.8
2017-01-28T00:06:47.736Z,19.81
2017-01-28T00:07:48.204Z,19.76
2017-01-28T00:08:48.193Z,19.66
2017-01-28T00:09:48.463Z,19.74
2017-01-28T00:10:47.843Z,19.69
2017-01-28T00:11:47.481Z,19.76
2017-01-28T00:12:47.917Z,19.69
2017-01-28T00:13:48.322Z,19.65
2017-01-28T00:14:47.810Z,19.74
2017-01-28T00:15:47.579Z,19.73
2017-01-28T00:16:48.001Z,19.73
2017-01-28T00:17:48.418Z,19.68
2017-01-28T00:18:48.090Z,19.68
2017-01-28T00:19:48.339Z,19.65
2017-01-28T00:20:47.705Z,19.65
2017-01-28T00:21:48.524Z,19.66
2017-01-28T00:22:48.153Z,19.63
2017-01-28T00:23:48.186Z,19.66
2017-01-28T00:24:48.855Z,19.63
2017-01-28T00:25:48.234Z,19.65
2017-01-28T00:26:48.663Z,19.65
2017-01-28T00:27:48.280Z,19.63
2017-01-28T00:28:48.309Z,19.62
2017-01-28T00:29:49.238Z,19.62
2017-01-28T00:30:48.358Z,19.59
2017-01-28T00:31:48.387Z,19.5
2017-01-28T00:32:48.012Z,19.55
2017-01-28T00:33:48.441Z,19.51
2017-01-28T00:34:48.075Z,19.48
2017-01-28T00:35:48.495Z,19.46
2017-01-28T00:36:48.903Z,19.46
2017-01-28T00:37:48.935Z,19.54
2017-01-28T00:38:48.581Z,19.55
2017-01-28T00:39:48.197Z,19.5
2017-01-28T00:40:48.623Z,19.44
2017-01-28T00:41:48.644Z,19.47
2017-01-28T00:42:48.278Z,19.4
2017-01-28T00:43:49.093Z,19.5
2017-01-28T00:44:48.717Z,19.47
2017-01-28T00:45:49.138Z,19.41
2017-01-28T00:46:49.167Z,19.46
2017-01-28T00:47:48.800Z,19.46
2017-01-28T00:48:48.825Z,19.47
2017-01-28T00:49:49.254Z,19.44
2017-01-28T00:50:48.875Z,19.41
2017-01-28T00:51:49.294Z,19.39
2017-01-28T00:52:48.940Z,19.4
2017-01-28T00:53:49.352Z,19.44
2017-01-28T00:54:49.393Z,19.43
2017-01-28T00:55:49.402Z,19.37
2017-01-28T00:56:49.426Z,19.39
2017-01-28T00:57:48.660Z,19.32
2017-01-28T00:58:48.687Z,19.28
2017-01-28T00:59:48.710Z,19.29
2017-01-28T01:00:48.986Z,19.25
2017-01-28T01:01:49.150Z,19.37
2017-01-28T01:02:49.577Z,19.25
2017-01-28T01:03:49.212Z,19.26
2017-01-28T01:04:49.630Z,19.26
2017-01-28T01:05:49.908Z,19.31
2017-01-28T01:06:49.290Z,19.32
2017-01-28T01:07:49.319Z,19.21
2017-01-28T01:08:49.344Z,19.13
2017-01-28T01:09:49.753Z,19.29
2017-01-28T01:10:50.281Z,19.23
2017-01-28T01:11:49.810Z,19.28
2017-01-28T01:12:49.039Z,19.32
2017-01-28T01:13:49.866Z,19.18
2017-01-28T01:14:49.500Z,19.19
2017-01-28T01:15:49.153Z,19.19
2017-01-28T01:16:49.945Z,19.16
2017-01-28T01:17:49.567Z,19.14
2017-01-28T01:18:49.190Z,19.14
2017-01-28T01:19:49.616Z,19.14
2017-01-28T01:20:50.027Z,19.18
2017-01-28T01:21:49.669Z,19.18
2017-01-28T01:22:49.692Z,19.21
2017-01-28T01:23:49.730Z,19.26
2017-01-28T01:24:49.735Z,19.08
2017-01-28T01:25:49.764Z,19.11
2017-01-28T01:26:50.201Z,19.18
2017-01-28T01:27:49.823Z,19.13
2017-01-28T01:28:49.846Z,19.11
2017-01-28T01:29:50.262Z,19.11
2017-01-28T01:30:49.894Z,19.14
2017-01-28T01:31:50.316Z,19.11
2017-01-28T01:32:49.549Z,19.11
2017-01-28T01:33:50.360Z,19.07
2017-01-28T01:34:50.389Z,19.06
2017-01-28T01:35:50.419Z,19.13
2017-01-28T01:36:50.443Z,19.1
2017-01-28T01:37:50.472Z,19.02
2017-01-28T01:38:50.504Z,19.13
2017-01-28T01:39:50.522Z,19.04
2017-01-28T01:40:50.155Z,19.06
2017-01-28T01:41:50.823Z,19.07
2017-01-28T01:42:50.200Z,19.13
2017-01-28T01:43:50.625Z,19.06
2017-01-28T01:44:50.250Z,18.99
2017-01-28T01:45:49.874Z,18.99
2017-01-28T01:46:50.807Z,19
2017-01-28T01:47:50.722Z,18.99
2017-01-28T01:48:50.749Z,19.02
2017-01-28T01:49:50.776Z,18.85
2017-01-28T01:50:50.801Z,18.95
2017-01-28T01:51:50.437Z,18.99
2017-01-28T01:52:50.455Z,19
2017-01-28T01:53:50.872Z,18.91
2017-01-28T01:54:50.504Z,18.91
2017-01-28T01:55:50.927Z,18.95
2017-01-28T01:56:50.553Z,18.94
2017-01-28T01:57:50.434Z,18.88
2017-01-28T01:58:50.210Z,18.94
2017-01-28T01:59:51.022Z,18.91
2017-01-28T02:00:50.660Z,18.9
2017-01-28T02:01:50.681Z,18.92
2017-01-28T02:02:50.951Z,18.9
2017-01-28T02:03:51.126Z,18.9
2017-01-28T02:04:50.751Z,18.9
2017-01-28T02:05:50.391Z,18.88
2017-01-28T02:06:50.808Z,18.87
2017-01-28T02:07:51.093Z,18.76
2017-01-28T02:08:51.255Z,18.81
2017-01-28T02:09:50.883Z,18.84
2017-01-28T02:10:50.904Z,18.84
2017-01-28T02:11:51.333Z,18.82
2017-01-28T02:12:51.854Z,18.81
2017-01-28T02:13:50.591Z,18.76
2017-01-28T02:14:51.016Z,18.76
2017-01-28T02:15:51.444Z,18.8
2017-01-28T02:16:51.461Z,18.87
2017-01-28T02:17:50.940Z,18.82
2017-01-28T02:18:51.115Z,18.81
2017-01-28T02:19:51.140Z,18.78
2017-01-28T02:20:51.164Z,18.82
2017-01-28T02:21:51.188Z,18.8
2017-01-28T02:22:51.461Z,18.76
2017-01-28T02:23:51.635Z,18.75
2017-01-28T02:24:50.874Z,18.8
2017-01-28T02:25:51.692Z,18.81
2017-01-28T02:26:51.317Z,18.8
2017-01-28T02:27:51.198Z,18.76
2017-01-28T02:28:50.975Z,18.75
2017-01-28T02:29:51.784Z,18.8
2017-01-28T02:30:51.824Z,18.73
2017-01-28T02:31:51.847Z,18.69
2017-01-28T02:32:52.114Z,18.75
2017-01-28T02:33:51.487Z,18.76
2017-01-28T02:34:51.124Z,18.73
2017-01-28T02:35:51.546Z,18.72
2017-01-28T02:36:51.570Z,18.72
2017-01-28T02:37:52.234Z,18.72
2017-01-28T02:38:51.648Z,18.73
2017-01-28T02:39:51.644Z,18.7
2017-01-28T02:40:51.673Z,18.72
2017-01-28T02:41:52.091Z,18.7
2017-01-28T02:42:52.418Z,18.69
2017-01-28T02:43:52.135Z,18.72
2017-01-28T02:44:52.180Z,18.65
2017-01-28T02:45:51.401Z,18.63
2017-01-28T02:46:51.822Z,18.66
2017-01-28T02:47:51.455Z,18.66
2017-01-28T02:48:51.863Z,18.7
2017-01-28T02:49:51.500Z,18.63
2017-01-28T02:50:52.318Z,18.66
2017-01-28T02:51:51.949Z,18.62
2017-01-28T02:52:51.983Z,18.7
2017-01-28T02:53:51.997Z,18.67
2017-01-28T02:54:51.621Z,18.65
2017-01-28T02:55:52.041Z,18.66
2017-01-28T02:56:52.467Z,18.63
2017-01-28T02:57:52.105Z,18.63
2017-01-28T02:58:52.371Z,18.63
2017-01-28T02:59:52.152Z,18.63
2017-01-28T03:00:52.571Z,18.65
2017-01-28T03:01:52.201Z,18.65
2017-01-28T03:02:51.830Z,18.66
2017-01-28T03:03:52.507Z,18.62
2017-01-28T03:04:52.272Z,18.63
2017-01-28T03:05:52.303Z,18.62
2017-01-28T03:06:52.323Z,18.63
2017-01-28T03:07:52.746Z,18.66
2017-01-28T03:08:53.030Z,18.62
2017-01-28T03:09:52.801Z,18.65
2017-01-28T03:10:52.824Z,18.63
2017-01-28T03:11:52.468Z,18.6
2017-01-28T03:12:52.478Z,18.69
2017-01-28T03:13:52.775Z,18.62
2017-01-28T03:14:52.519Z,18.62
2017-01-28T03:15:52.553Z,18.63
2017-01-28T03:16:52.969Z,18.58
2017-01-28T03:17:53.000Z,18.57
2017-01-28T03:18:53.153Z,18.55
2017-01-28T03:19:52.655Z,18.58
2017-01-28T03:20:52.284Z,18.65
2017-01-28T03:21:52.305Z,18.57
2017-01-28T03:22:52.723Z,18.62
2017-01-28T03:23:53.406Z,18.63
2017-01-28T03:24:53.174Z,18.5
2017-01-28T03:25:52.403Z,18.5
2017-01-28T03:26:53.220Z,18.55
2017-01-28T03:27:53.245Z,18.55
2017-01-28T03:28:52.477Z,18.62
2017-01-28T03:29:53.294Z,18.6
2017-01-28T03:30:53.322Z,18.57
2017-01-28T03:31:53.347Z,18.6
2017-01-28T03:32:52.985Z,18.58
2017-01-28T03:33:53.001Z,18.48
2017-01-28T03:34:53.020Z,18.5
2017-01-28T03:35:53.451Z,18.51
2017-01-28T03:36:53.475Z,18.52
2017-01-28T03:37:52.709Z,18.54
2017-01-28T03:38:52.729Z,18.48
2017-01-28T03:39:53.802Z,18.5
2017-01-28T03:40:53.578Z,18.52
2017-01-28T03:41:53.211Z,18.48
2017-01-28T03:42:52.836Z,18.42
2017-01-28T03:43:53.654Z,18.47
2017-01-28T03:44:53.136Z,18.5
2017-01-28T03:45:53.699Z,18.51
2017-01-28T03:46:53.723Z,18.51
2017-01-28T03:47:53.752Z,18.5
2017-01-28T03:48:53.772Z,18.54
2017-01-28T03:49:53.900Z,18.52
2017-01-28T03:50:53.826Z,18.44
2017-01-28T03:51:53.454Z,18.51
2017-01-28T03:52:53.478Z,18.51
2017-01-28T03:53:53.503Z,18.51
2017-01-28T03:54:53.529Z,18.44
2017-01-28T03:55:53.955Z,18.39
2017-01-28T03:56:53.581Z,18.44
2017-01-28T03:57:53.611Z,18.44
2017-01-28T03:58:54.041Z,18.45
2017-01-28T03:59:53.655Z,18.48
2017-01-28T04:00:53.676Z,18.5
2017-01-28T04:01:53.710Z,18.44
2017-01-28T04:02:54.137Z,18.44
2017-01-28T04:03:54.149Z,18.41
2017-01-28T04:04:53.797Z,18.41
2017-01-28T04:05:53.407Z,18.41
2017-01-28T04:06:53.833Z,18.45
2017-01-28T04:07:54.244Z,18.41
2017-01-28T04:08:54.274Z,18.44
2017-01-28T04:09:53.535Z,18.42
2017-01-28T04:10:54.572Z,18.42
2017-01-28T04:11:54.356Z,18.47
2017-01-28T04:12:54.373Z,18.37
2017-01-28T04:13:54.393Z,18.41
2017-01-28T04:14:54.419Z,18.32
2017-01-28T04:15:54.703Z,18.42
2017-01-28T04:16:54.076Z,18.42
2017-01-28T04:17:54.105Z,18.39
2017-01-28T04:18:54.537Z,18.39
2017-01-28T04:19:54.542Z,18.36
2017-01-28T04:20:54.426Z,18.32
2017-01-28T04:21:54.207Z,18.37
2017-01-28T04:22:53.828Z,18.35
2017-01-28T04:23:54.647Z,18.37
2017-01-28T04:24:54.277Z,18.33
2017-01-28T04:25:54.551Z,18.33
2017-01-28T04:26:54.746Z,18.29
2017-01-28T04:27:54.352Z,18.29
2017-01-28T04:28:54.377Z,18.32
2017-01-28T04:29:54.397Z,18.35
2017-01-28T04:30:54.929Z,18.29
2017-01-28T04:31:54.446Z,18.26
2017-01-28T04:32:54.479Z,18.37
2017-01-28T04:33:54.904Z,18.26
2017-01-28T04:34:54.920Z,18.33
2017-01-28T04:35:54.553Z,18.26
2017-01-28T04:36:54.574Z,18.26
2017-01-28T04:37:54.207Z,18.26
2017-01-28T04:38:54.227Z,18.23
2017-01-28T04:39:54.252Z,18.29
2017-01-28T04:40:54.277Z,18.29
2017-01-28T04:41:55.091Z,18.26
2017-01-28T04:42:54.726Z,18.29
2017-01-28T04:43:55.139Z,18.21
2017-01-28T04:44:54.380Z,18.27
2017-01-28T04:45:54.797Z,18.21
2017-01-28T04:46:54.418Z,18.27
2017-01-28T04:47:54.458Z,18.18
2017-01-28T04:48:54.875Z,18.26
2017-01-28T04:49:55.290Z,18.18
2017-01-28T04:50:54.922Z,18.2
2017-01-28T04:51:55.344Z,18.23
2017-01-28T04:52:54.973Z,18.21
2017-01-28T04:53:54.990Z,18.2
2017-01-28T04:54:55.023Z,18.2
2017-01-28T04:55:55.444Z,18.21
2017-01-28T04:56:54.681Z,18.2
2017-01-28T04:57:55.496Z,18.23
2017-01-28T04:58:55.125Z,18.23
2017-01-28T04:59:55.547Z,18.17
2017-01-28T05:00:55.171Z,18.21
2017-01-28T05:01:55.452Z,18.15
2017-01-28T05:02:55.229Z,18.11
2017-01-28T05:03:55.649Z,18.21
2017-01-28T05:04:55.671Z,18.18
2017-01-28T05:05:55.694Z,18.17
2017-01-28T05:06:55.968Z,18.2
2017-01-28T05:07:55.345Z,18.21
2017-01-28T05:08:55.774Z,18.15
2017-01-28T05:09:55.402Z,18.2
2017-01-28T05:10:55.426Z,18.12
2017-01-28T05:11:56.351Z,18.15
2017-01-28T05:12:55.868Z,18.17
2017-01-28T05:13:55.100Z,18.14
2017-01-28T05:14:55.921Z,18.14
2017-01-28T05:15:55.546Z,18.17
2017-01-28T05:16:55.190Z,18.14
2017-01-28T05:17:55.199Z,18.1
2017-01-28T05:18:55.624Z,18.12
2017-01-28T05:19:56.042Z,18.11
2017-01-28T05:20:56.065Z,18.12
2017-01-28T05:21:55.695Z,18.14
2017-01-28T05:22:55.346Z,18.08
2017-01-28T05:23:55.744Z,18.15
2017-01-28T05:24:56.160Z,18.21
2017-01-28T05:25:55.797Z,18.14
2017-01-28T05:26:56.215Z,18.11
2017-01-28T05:27:56.238Z,18.1
2017-01-28T05:28:55.476Z,18.18
2017-01-28T05:29:56.293Z,18.15
2017-01-28T05:30:55.920Z,18.17
2017-01-28T05:31:55.550Z,18.2
2017-01-28T05:32:56.615Z,18.25
2017-01-28T05:33:55.991Z,18.27
2017-01-28T05:34:56.415Z,18.29
2017-01-28T05:35:56.442Z,18.35
2017-01-28T05:36:56.465Z,18.29
2017-01-28T05:37:56.737Z,18.3
2017-01-28T05:38:56.114Z,18.29
2017-01-28T05:39:56.547Z,18.3
2017-01-28T05:40:55.766Z,18.41
2017-01-28T05:41:56.589Z,18.42
2017-01-28T05:42:56.862Z,18.41
2017-01-28T05:43:56.250Z,18.51
2017-01-28T05:44:56.267Z,18.48
2017-01-28T05:45:56.692Z,18.5
2017-01-28T05:46:56.717Z,18.51
2017-01-28T05:47:56.989Z,18.52
2017-01-28T05:48:56.365Z,18.55
2017-01-28T05:49:55.996Z,18.52
2017-01-28T05:50:56.024Z,18.57
2017-01-28T05:51:56.872Z,18.57
2017-01-28T05:52:57.369Z,18.66
2017-01-28T05:53:56.484Z,18.67
2017-01-28T05:54:56.119Z,18.65
2017-01-28T05:55:56.540Z,18.66
2017-01-28T05:56:56.567Z,18.73
2017-01-28T05:57:56.193Z,18.67
2017-01-28T05:58:56.608Z,18.72
2017-01-28T05:59:56.640Z,18.78
2017-01-28T06:00:57.059Z,18.81
2017-01-28T06:01:57.079Z,18.81
2017-01-28T06:02:57.108Z,18.84
2017-01-28T06:03:57.137Z,18.8
2017-01-28T06:04:57.159Z,18.81
2017-01-28T06:05:56.399Z,18.82
2017-01-28T06:06:56.807Z,18.8
2017-01-28T06:07:56.840Z,18.82
2017-01-28T06:08:57.261Z,18.9
2017-01-28T06:09:57.278Z,18.78
2017-01-28T06:10:56.914Z,18.9
2017-01-28T06:11:56.943Z,18.98
2017-01-28T06:12:56.966Z,18.95
2017-01-28T06:13:56.988Z,18.94
2017-01-28T06:14:57.009Z,18.9
2017-01-28T06:15:57.045Z,18.92
2017-01-28T06:16:57.067Z,18.9
2017-01-28T06:17:57.483Z,18.99
2017-01-28T06:18:57.115Z,18.95
2017-01-28T06:19:57.143Z,19.07
2017-01-28T06:20:57.165Z,19.07
2017-01-28T06:21:57.618Z,19.1
2017-01-28T06:22:56.819Z,19.13
2017-01-28T06:23:57.900Z,19.04
2017-01-28T06:24:56.868Z,19.11
2017-01-28T06:25:57.289Z,19.13
2017-01-28T06:26:57.314Z,19.1
2017-01-28T06:27:57.337Z,19.06
2017-01-28T06:28:58.015Z,19.21
2017-01-28T06:29:57.002Z,19.19
2017-01-28T06:30:57.812Z,19.11
2017-01-28T06:31:57.441Z,19.08
2017-01-28T06:32:57.862Z,19.18
2017-01-28T06:33:58.140Z,19.19
2017-01-28T06:34:57.915Z,19.14
2017-01-28T06:35:57.547Z,19.21
2017-01-28T06:36:57.569Z,19.11
2017-01-28T06:37:57.589Z,19.21
2017-01-28T06:38:57.874Z,19.16
2017-01-28T06:39:58.038Z,19.13
2017-01-28T06:40:58.063Z,19.23
2017-01-28T06:41:57.693Z,19.26
2017-01-28T06:42:58.125Z,19.13
2017-01-28T06:43:58.381Z,19.11
2017-01-28T06:44:57.761Z,19.11
2017-01-28T06:45:57.399Z,19.14
2017-01-28T06:46:57.816Z,19.23
2017-01-28T06:47:58.244Z,19.11
2017-01-28T06:48:58.124Z,19.16
2017-01-28T06:49:57.889Z,19.21
2017-01-28T06:50:58.323Z,19.14
2017-01-28T06:51:58.340Z,19.16
2017-01-28T06:52:57.967Z,19.13
2017-01-28T06:53:57.593Z,19.19
2017-01-28T06:54:58.422Z,19.22
2017-01-28T06:55:58.446Z,19.18
2017-01-28T06:56:58.467Z,19.16
2017-01-28T06:57:58.100Z,19.18
2017-01-28T06:58:58.120Z,19.21
2017-01-28T06:59:58.543Z,19.29
2017-01-28T07:00:58.567Z,19.29
2017-01-28T07:01:58.586Z,19.26
2017-01-28T07:02:57.826Z,19.28
2017-01-28T07:03:58.643Z,19.29
2017-01-28T07:04:58.273Z,19.26
2017-01-28T07:05:58.697Z,19.29
2017-01-28T07:06:58.318Z,19.31
2017-01-28T07:07:58.345Z,19.31
2017-01-28T07:08:58.772Z,19.26
2017-01-28T07:09:58.401Z,19.31
2017-01-28T07:10:58.821Z,19.28
2017-01-28T07:11:58.455Z,19.31
2017-01-28T07:12:58.870Z,19.29
2017-01-28T07:13:58.899Z,19.31
2017-01-28T07:14:58.941Z,19.29
2017-01-28T07:15:58.553Z,19.26
2017-01-28T07:16:58.574Z,19.36
2017-01-28T07:17:58.998Z,19.32
2017-01-28T07:18:59.023Z,19.39
2017-01-28T07:19:58.651Z,19.39
2017-01-28T07:20:58.676Z,19.36
2017-01-28T07:21:59.093Z,19.44
2017-01-28T07:22:59.126Z,19.4
2017-01-28T07:23:58.752Z,19.44
2017-01-28T07:24:59.179Z,19.46
2017-01-28T07:25:58.812Z,19.43
2017-01-28T07:26:59.228Z,19.43
2017-01-28T07:27:59.251Z,19.47
2017-01-28T07:28:58.480Z,19.5
2017-01-28T07:29:58.535Z,19.47
2017-01-28T07:30:58.922Z,19.43
2017-01-28T07:31:58.556Z,19.39
2017-01-28T07:32:58.980Z,19.43
2017-01-28T07:33:59.016Z,19.47
2017-01-28T07:34:59.419Z,19.43
2017-01-28T07:35:59.451Z,19.44
2017-01-28T07:36:59.080Z,19.46
2017-01-28T07:37:59.500Z,19.48
2017-01-28T07:38:59.133Z,19.44
2017-01-28T07:39:59.554Z,19.44
2017-01-28T07:40:59.579Z,19.4
2017-01-28T07:41:59.602Z,19.4
2017-01-28T07:42:59.232Z,19.43
2017-01-28T07:43:59.261Z,19.4
2017-01-28T07:44:59.930Z,19.44
2017-01-28T07:45:59.312Z,19.43
2017-01-28T07:46:58.934Z,19.46
2017-01-28T07:47:58.958Z,19.33
2017-01-28T07:48:59.385Z,19.36
2017-01-28T07:49:59.264Z,19.41
2017-01-28T07:50:59.437Z,19.36
2017-01-28T07:51:59.859Z,19.43
2017-01-28T07:52:59.878Z,19.31
2017-01-28T07:53:59.912Z,19.37
2017-01-28T07:55:00.185Z,19.33
2017-01-28T07:55:59.961Z,19.39
2017-01-28T07:57:00.019Z,19.32
2017-01-28T07:58:00.023Z,19.32
2017-01-28T07:58:59.641Z,19.28
2017-01-28T08:00:00.317Z,19.39
2017-01-28T08:00:59.694Z,19.36
2017-01-28T08:01:59.718Z,19.29
2017-01-28T08:03:00.134Z,19.33
2017-01-28T08:04:00.163Z,19.37
2017-01-28T08:04:59.647Z,19.33
2017-01-28T08:05:59.823Z,19.25
2017-01-28T08:06:59.834Z,19.26
2017-01-28T08:08:00.275Z,19.32
2017-01-28T08:08:59.497Z,19.31
2017-01-28T08:10:00.567Z,19.37
2017-01-28T08:11:00.345Z,19.31
2017-01-28T08:12:00.365Z,19.33
2017-01-28T08:12:59.996Z,19.26
2017-01-28T08:14:00.419Z,19.37
2017-01-28T08:15:00.695Z,19.29
2017-01-28T08:16:00.472Z,19.28
2017-01-28T08:17:00.097Z,19.31
2017-01-28T08:17:59.725Z,19.25
2017-01-28T08:19:00.151Z,19.21
2017-01-28T08:20:00.823Z,19.31
2017-01-28T08:21:00.608Z,19.19
2017-01-28T08:22:00.221Z,19.28
2017-01-28T08:23:00.245Z,19.22
2017-01-28T08:24:00.304Z,19.28
2017-01-28T08:25:00.550Z,19.28
2017-01-28T08:25:59.930Z,19.29
2017-01-28T08:27:00.752Z,19.29
2017-01-28T08:28:00.777Z,19.36
2017-01-28T08:29:00.798Z,19.33
2017-01-28T08:30:00.672Z,19.37
2017-01-28T08:31:00.846Z,19.29
2017-01-28T08:32:00.115Z,19.28
2017-01-28T08:33:00.900Z,19.33
2017-01-28T08:34:00.525Z,19.31
2017-01-28T08:35:00.810Z,19.31
2017-01-28T08:36:01.001Z,19.36
2017-01-28T08:37:00.995Z,19.29
2017-01-28T08:38:01.024Z,19.31
2017-01-28T08:39:01.052Z,19.31
2017-01-28T08:40:00.540Z,19.25
2017-01-28T08:41:00.713Z,19.32
2017-01-28T08:42:01.126Z,19.25
2017-01-28T08:43:01.151Z,19.29
2017-01-28T08:44:01.175Z,19.28
2017-01-28T08:45:01.458Z,19.22
2017-01-28T08:46:01.234Z,19.29
2017-01-28T08:47:00.462Z,19.32
2017-01-28T08:48:01.275Z,19.14
2017-01-28T08:49:01.305Z,19.16
2017-01-28T08:50:01.584Z,19.14
2017-01-28T08:51:00.565Z,19.14
2017-01-28T08:52:01.386Z,19.21
2017-01-28T08:53:01.408Z,19.18
2017-01-28T08:54:01.433Z,19.11
2017-01-28T08:55:01.315Z,19.19
2017-01-28T08:56:01.482Z,19.14
2017-01-28T08:57:01.116Z,19.16
2017-01-28T08:58:00.738Z,19.08
2017-01-28T08:59:01.555Z,19.22
2017-01-28T09:00:01.439Z,19.11
2017-01-28T09:01:01.217Z,19.18
2017-01-28T09:02:01.641Z,19.16
2017-01-28T09:03:01.652Z,19.11
2017-01-28T09:04:01.686Z,19.18
2017-01-28T09:05:01.963Z,19.19
2017-01-28T09:06:01.342Z,19.14
2017-01-28T09:07:00.970Z,19.08
2017-01-28T09:08:01.788Z,19.16
2017-01-28T09:09:01.813Z,19.1
2017-01-28T09:10:01.835Z,19.21
2017-01-28T09:11:01.864Z,19.18
2017-01-28T09:12:01.496Z,19.18
2017-01-28T09:13:01.127Z,19.16
2017-01-28T09:14:01.543Z,19.31
2017-01-28T09:15:01.567Z,19.26
2017-01-28T09:16:01.846Z,19.22
2017-01-28T09:17:02.013Z,19.26
2017-01-28T09:18:02.052Z,19.23
2017-01-28T09:19:02.066Z,19.29
2017-01-28T09:20:01.693Z,19.33
2017-01-28T09:21:01.967Z,19.4
2017-01-28T09:22:02.141Z,19.33
2017-01-28T09:23:02.204Z,19.47
2017-01-28T09:24:01.396Z,19.4
2017-01-28T09:25:02.218Z,19.46
2017-01-28T09:26:02.094Z,19.5
2017-01-28T09:27:02.274Z,19.47
2017-01-28T09:28:01.898Z,19.48
2017-01-28T09:29:01.920Z,19.55
2017-01-28T09:30:02.345Z,19.47
2017-01-28T09:31:02.230Z,19.5
2017-01-28T09:32:01.999Z,19.62
2017-01-28T09:33:01.631Z,19.65
2017-01-28T09:34:02.045Z,19.63
2017-01-28T09:35:02.078Z,19.62
2017-01-28T09:36:02.750Z,19.66
2017-01-28T09:37:02.133Z,19.76
2017-01-28T09:38:02.545Z,19.8
2017-01-28T09:39:02.183Z,19.87
2017-01-28T09:40:02.601Z,19.95
2017-01-28T09:41:02.083Z,19.95
2017-01-28T09:42:02.258Z,20.05
2017-01-28T09:43:02.295Z,20.05
2017-01-28T09:44:02.694Z,20.08
2017-01-28T09:45:02.324Z,20.2
2017-01-28T09:46:02.612Z,20.2
2017-01-28T09:47:02.381Z,20.32
2017-01-28T09:48:02.801Z,20.31
2017-01-28T09:49:02.435Z,20.29
2017-01-28T09:50:02.061Z,20.38
2017-01-28T09:51:02.734Z,20.55
2017-01-28T09:52:02.909Z,20.43
2017-01-28T09:53:02.539Z,20.52
2017-01-28T09:54:02.958Z,20.58
2017-01-28T09:55:02.585Z,20.62
2017-01-28T09:56:02.873Z,20.59
2017-01-28T09:57:03.031Z,20.64
2017-01-28T09:58:03.073Z,20.72
2017-01-28T09:59:02.689Z,20.72
2017-01-28T10:00:02.719Z,20.7
2017-01-28T10:01:02.991Z,20.79
2017-01-28T10:02:02.373Z,20.82
2017-01-28T10:03:03.197Z,20.82
2017-01-28T10:04:02.825Z,20.88
2017-01-28T10:05:02.850Z,20.97
2017-01-28T10:06:03.523Z,20.97
2017-01-28T10:07:02.897Z,20.97
2017-01-28T10:08:02.919Z,20.99
2017-01-28T10:09:03.380Z,20.92
2017-01-28T10:10:02.980Z,21.03
2017-01-28T10:11:03.248Z,20.97
2017-01-28T10:12:03.031Z,20.97
2017-01-28T10:13:03.051Z,20.99
2017-01-28T10:14:03.471Z,21.03
2017-01-28T10:15:03.101Z,21.09
2017-01-28T10:16:03.528Z,21.06
2017-01-28T10:17:03.155Z,21.04
2017-01-28T10:18:03.573Z,21.06
2017-01-28T10:19:03.204Z,21.1
2017-01-28T10:20:02.839Z,21.06
2017-01-28T10:21:03.676Z,20.97
2017-01-28T10:22:03.589Z,20.97
2017-01-28T10:23:02.911Z,21.04
2017-01-28T10:24:03.364Z,20.94
2017-01-28T10:25:03.767Z,20.98
2017-01-28T10:26:03.798Z,20.92
2017-01-28T10:27:04.073Z,20.97
2017-01-28T10:28:03.833Z,20.91
2017-01-28T10:29:03.867Z,20.88
2017-01-28T10:30:03.498Z,20.88
2017-01-28T10:31:03.528Z,20.87
2017-01-28T10:32:03.425Z,20.76
2017-01-28T10:33:03.177Z,20.7
2017-01-28T10:34:04.010Z,20.67
2017-01-28T10:35:04.028Z,20.73
2017-01-28T10:36:03.651Z,20.7
2017-01-28T10:37:03.929Z,20.69
2017-01-28T10:38:03.713Z,20.61
2017-01-28T10:39:03.733Z,20.62
2017-01-28T10:40:03.773Z,20.66
2017-01-28T10:41:03.391Z,20.61
2017-01-28T10:42:04.063Z,20.55
2017-01-28T10:43:04.242Z,20.43
2017-01-28T10:44:03.473Z,20.41
2017-01-28T10:45:03.885Z,20.54
2017-01-28T10:46:04.303Z,20.47
2017-01-28T10:47:04.602Z,20.38
2017-01-28T10:48:03.957Z,20.39
2017-01-28T10:49:04.017Z,20.36
2017-01-28T10:50:04.408Z,20.42
2017-01-28T10:51:04.440Z,20.32
2017-01-28T10:52:04.717Z,20.31
2017-01-28T10:53:03.698Z,20.29
2017-01-28T10:54:04.123Z,20.31
2017-01-28T10:55:04.142Z,20.21
2017-01-28T10:56:04.168Z,20.21
2017-01-28T10:57:04.848Z,20.17
2017-01-28T10:58:04.622Z,20.21
2017-01-28T10:59:04.648Z,20.23
2017-01-28T11:00:04.671Z,20.18
2017-01-28T11:01:04.696Z,20.18
2017-01-28T11:02:04.584Z,20.13
2017-01-28T11:03:03.965Z,20.18
2017-01-28T11:04:03.988Z,20.05
2017-01-28T11:05:04.798Z,20.08
2017-01-28T11:06:04.836Z,20.05
2017-01-28T11:07:04.712Z,20.08
2017-01-28T11:08:04.488Z,20.05
2017-01-28T11:09:04.513Z,19.95
2017-01-28T11:10:04.932Z,19.99
2017-01-28T11:11:04.964Z,20.02
2017-01-28T11:12:05.482Z,19.92
2017-01-28T11:13:05.004Z,19.96
2017-01-28T11:14:04.655Z,19.96
2017-01-28T11:15:05.066Z,19.92
2017-01-28T11:16:04.688Z,19.95
2017-01-28T11:17:04.724Z,19.94
2017-01-28T11:18:05.139Z,19.94
2017-01-28T11:19:05.164Z,19.94
2017-01-28T11:20:05.204Z,19.88
2017-01-28T11:21:04.825Z,19.95
2017-01-28T11:22:05.247Z,19.96
2017-01-28T11:23:05.264Z,19.91
2017-01-28T11:24:05.291Z,19.87
2017-01-28T11:25:05.328Z,19.92
2017-01-28T11:26:04.548Z,19.87
2017-01-28T11:27:05.375Z,19.84
2017-01-28T11:28:05.398Z,19.87
2017-01-28T11:29:05.020Z,19.88
2017-01-28T11:30:05.055Z,19.83
2017-01-28T11:31:05.080Z,19.84
2017-01-28T11:32:05.115Z,19.83
2017-01-28T11:33:05.777Z,19.84
2017-01-28T11:34:05.167Z,19.87
2017-01-28T11:35:05.186Z,19.78
2017-01-28T11:36:05.207Z,19.83
2017-01-28T11:37:05.239Z,19.78
2017-01-28T11:38:05.905Z,19.81
2017-01-28T11:39:05.693Z,19.76
2017-01-28T11:40:05.314Z,19.74
2017-01-28T11:41:05.343Z,19.78
2017-01-28T11:42:05.756Z,19.74
2017-01-28T11:43:06.037Z,19.77
2017-01-28T11:44:05.807Z,19.68
2017-01-28T11:45:05.846Z,19.74
2017-01-28T11:46:05.466Z,19.84
2017-01-28T11:47:05.891Z,19.71
2017-01-28T11:48:06.021Z,19.76
2017-01-28T11:49:05.936Z,19.69
2017-01-28T11:50:05.963Z,19.74
2017-01-28T11:51:05.599Z,19.74
2017-01-28T11:52:05.623Z,19.78
2017-01-28T11:53:05.647Z,19.73
2017-01-28T11:54:05.675Z,19.74
2017-01-28T11:55:06.108Z,19.74
2017-01-28T11:56:05.723Z,19.68
2017-01-28T11:57:06.183Z,19.77
2017-01-28T11:58:06.175Z,19.71
2017-01-28T11:59:05.803Z,19.66
2017-01-28T12:00:06.250Z,19.74
2017-01-28T12:01:05.856Z,19.76
2017-01-28T12:02:05.477Z,19.69
2017-01-28T12:03:05.910Z,19.74
2017-01-28T12:04:06.187Z,19.62
2017-01-28T12:05:06.388Z,19.69
2017-01-28T12:06:06.376Z,19.76
2017-01-28T12:07:05.617Z,19.66
2017-01-28T12:08:06.044Z,19.68
2017-01-28T12:09:06.373Z,19.61
2017-01-28T12:10:06.487Z,19.68
2017-01-28T12:11:06.508Z,19.66
2017-01-28T12:12:06.140Z,19.69
2017-01-28T12:13:05.771Z,19.66
2017-01-28T12:14:06.849Z,19.73
2017-01-28T12:15:06.218Z,19.69
2017-01-28T12:16:06.643Z,19.65
2017-01-28T12:17:06.299Z,19.61
2017-01-28T12:18:06.302Z,19.69
2017-01-28T12:19:06.984Z,19.65
2017-01-28T12:20:06.345Z,19.66
2017-01-28T12:21:06.778Z,19.59
2017-01-28T12:22:06.791Z,19.62
2017-01-28T12:23:06.424Z,19.63
2017-01-28T12:24:06.959Z,19.74
2017-01-28T12:25:06.083Z,19.59
2017-01-28T12:26:06.905Z,19.66
2017-01-28T12:27:06.583Z,19.61
2017-01-28T12:28:06.951Z,19.66
2017-01-28T12:29:06.584Z,19.61
2017-01-28T12:30:06.611Z,19.66
2017-01-28T12:31:07.025Z,19.65
2017-01-28T12:32:07.057Z,19.65
2017-01-28T12:33:06.680Z,19.63
2017-01-28T12:34:07.114Z,19.61
2017-01-28T12:35:06.736Z,19.62
2017-01-28T12:36:06.764Z,19.65
2017-01-28T12:37:06.785Z,19.63
2017-01-28T12:38:07.211Z,19.63
2017-01-28T12:39:06.839Z,19.63
2017-01-28T12:40:07.123Z,19.62
2017-01-28T12:41:06.896Z,19.63
2017-01-28T12:42:06.913Z,19.61
2017-01-28T12:43:06.546Z,19.62
2017-01-28T12:44:06.580Z,19.58
2017-01-28T12:45:07.557Z,19.61
2017-01-28T12:46:07.016Z,19.63
2017-01-28T12:47:07.117Z,19.61
2017-01-28T12:48:07.484Z,19.63
2017-01-28T12:49:07.506Z,19.61
2017-01-28T12:50:07.380Z,19.65
2017-01-28T12:51:06.757Z,19.61
2017-01-28T12:52:07.580Z,19.54
2017-01-28T12:53:07.595Z,19.61
2017-01-28T12:54:07.243Z,19.54
2017-01-28T12:55:09.403Z,19.5
2017-01-28T12:56:07.680Z,19.58